TAF Text Data
IDs:
Format:
Raw Decoded Include METAR

Data at: 0159 UTC 16 Jan 2019

KDVN 160152Z AUTO 26014KT 8SM OVC008 01/M01 A3008 RMK AO2 CIG 007V012 SLP193 T00061011


KMLI 160152Z 25011KT 7SM OVC009 01/M01 A3007 RMK AO2 SLP189 T00111006

KMLI 160116Z 1601/1624 24009KT P6SM OVC007
  TEMPO 1601/1603 -DZ
  FM160900 31008KT P6SM OVC008
  FM161400 01006KT P6SM OVC025